KCEU/CEU METAR and TAF weather

Enter ICAO airport designator
Station Type Date Time Source
KCEU METAR 2018/07/21 03:54 UTC NOAA

KCEU 210354Z AUTO 32006KT 10SM CLR 23/20 A3000 RMK AO2 SLP148 T02280200


Station Type Date Time Source
KCEU Decoded METAR 2018/07/21 03:54 UTC NOAA

CLEMSON-OCONEE COUNTY AIRPORT , SC, United States (KCEU) 34-40N 082-53W 268M
Jul 20, 2018 - 11:54 PM EDT / 2018.07.21 0354 UTC
Wind: from the NW (320 degrees) at 7 MPH (6 KT):0
Visibility: 10 mile(s):0
Sky conditions: clear
Temperature: 73.0 F (22.8 C)
Dew Point: 68.0 F (20.0 C)
Relative Humidity: 84%
Pressure (altimeter): 30 in. Hg (1015 hPa)
ob: KCEU 210354Z AUTO 32006KT 10SM CLR 23/20 A3000 RMK AO2 SLP148 T02280200
cycle: 4

Station Type Date Time Source
KCEU TAF UTC NOAA

Error!


Example: see airport list